»·PEaware :: N251RT KBFL-KMHV

N251RT :: KBFL-KMHV

FLIGHT INFORMATION

Flight Status: Arrived
Operator: Privately registered:
United States
More flights under this callsign
Pilot: Roberto A. (10419)
Aircraft: CESSNA 310
(C310)
More flights by this aircraft type
Origin: KBFL Meadows
United States
Destination: KMHV Mojave
United States
More flights between these airports :: More routes between these airports
Route:
File this flight plan on PilotEdge
Remarks:
Altitude:
(Current/Filed)
7,500ft
Speed:
(Current/Filed)
160kts
Departed: 21-Dec-18 04:34 PM
Arrived: 21-Dec-18 04:57 PM
Distance/Time
Traveled:
121nm/0:22
Distance/Time
To Go:
Arrived

Flight Plot

Page will automatically refresh every two minutes.


Map Options




Map Legend


Flown Route
Filed Route
Departure Airport
Arrival Airport
Navaid (VOR, NDB)
Fix

Horizontal Profiles

Position Reports

Time Latitude Longitude Heading Altitude Ground
Speed
21-Dec-18 16:11 35.435401 -119.053553 194 497ft 0kts
21-Dec-18 16:12 35.435401 -119.053553 194 497ft 0kts
21-Dec-18 16:13 35.435401 -119.053553 194 497ft 0kts
21-Dec-18 16:14 35.435401 -119.053553 194 497ft 0kts
21-Dec-18 16:15 35.435401 -119.053553 194 497ft 0kts
21-Dec-18 16:16 35.435401 -119.053553 194 497ft 0kts
21-Dec-18 16:17 35.435401 -119.053553 194 497ft 0kts
21-Dec-18 16:18 35.435401 -119.053553 194 497ft 0kts
21-Dec-18 16:19 35.435401 -119.053553 194 497ft 0kts
21-Dec-18 16:20 35.435401 -119.053553 194 497ft 0kts
21-Dec-18 16:21 35.435401 -119.053553 194 497ft 0kts
21-Dec-18 16:22 35.435401 -119.053553 194 497ft 0kts
21-Dec-18 16:23 35.435401 -119.053553 194 497ft 0kts
21-Dec-18 16:24 35.435401 -119.053553 194 497ft 0kts
21-Dec-18 16:25 35.435401 -119.053553 194 497ft 0kts
21-Dec-18 16:26 35.435401 -119.053553 194 497ft 0kts
21-Dec-18 16:27 35.434769 -119.054316 229 497ft 2kts
21-Dec-18 16:28 35.434711 -119.054396 226 497ft 0kts
21-Dec-18 16:29 35.433196 -119.053423 183 497ft 7kts
21-Dec-18 16:30 35.433042 -119.053499 219 497ft 0kts
21-Dec-18 16:31 35.433042 -119.053499 219 497ft 0kts
21-Dec-18 16:32 35.432883 -119.053664 221 497ft 10kts
21-Dec-18 16:33 35.442355 -119.066970 313 702ft 101kts
21-Dec-18 16:34 35.461640 -119.063121 113 1702ft 122kts
21-Dec-18 16:35 35.441649 -119.028264 119 2881ft 120kts
21-Dec-18 16:36 35.421305 -118.994790 133 4048ft 124kts
21-Dec-18 16:37 35.400843 -118.958902 118 5065ft 136kts
21-Dec-18 16:38 35.382942 -118.917239 116 6074ft 139kts
21-Dec-18 16:39 35.366148 -118.874610 115 7067ft 141kts
21-Dec-18 16:40 35.349486 -118.825987 107 7388ft 173kts
21-Dec-18 16:41 35.329146 -118.769862 116 7381ft 183kts
21-Dec-18 16:42 35.305982 -118.713775 116 7381ft 185kts
21-Dec-18 16:43 35.281169 -118.658451 124 7382ft 185kts
21-Dec-18 16:44 35.251330 -118.607583 125 7445ft 184kts
21-Dec-18 16:45 35.221292 -118.556356 125 7445ft 185kts
21-Dec-18 16:46 35.191069 -118.505023 125 7445ft 185kts
21-Dec-18 16:47 35.161777 -118.455083 122 7433ft 161kts
21-Dec-18 16:48 35.139592 -118.411273 121 7442ft 145kts
21-Dec-18 16:49 35.118635 -118.369732 121 7444ft 141kts
21-Dec-18 16:50 35.098708 -118.330217 122 7424ft 122kts
21-Dec-18 16:51 35.083303 -118.290020 108 6568ft 131kts
21-Dec-18 16:52 35.073539 -118.246346 96 5594ft 141kts
21-Dec-18 16:53 35.074030 -118.196713 86 4837ft 156kts
21-Dec-18 16:54 35.073688 -118.145603 95 3549ft 106kts
21-Dec-18 16:55 35.059142 -118.141829 272 2789ft 103kts
21-Dec-18 16:56 35.059180 -118.151961 271 2755ft 20kts
21-Dec-18 16:57 35.058354 -118.157804 182 2765ft 9kts
21-Dec-18 16:58 35.057610 -118.152987 89 2753ft 15kts
21-Dec-18 16:59 35.056948 -118.151710 6 2747ft 0kts
21-Dec-18 17:08 34.102424 -117.224717 94 1132ft 0kts
21-Dec-18 17:09 34.102424 -117.224717 94 1132ft 0kts
21-Dec-18 17:10 34.102424 -117.224717 94 1132ft 0kts

Navigation Log

Ident Type
Flight plan parsing failed, navigation log unavailable